Time;durP1;ratioP1;P1;durP2;ratioP2;P2;SDS_P1;SDS_P2;PMS_P1;PMS_P2;Temp;Humidity;BMP_temperature;BMP_pressure;BME280_temperature;BME280_humidity;BME280_pressure;Samples;Min_cycle;Max_cycle;Signal;HPM_P1;HPM_P2
2022/03/06 00:01:42;;;;;;;10.05;3.42;;;;;;;-0.72;69.02;100376.38;6371012;27;20148;-68
2022/03/06 00:04:42;;;;;;;4.63;2.78;;;;;;;-0.75;69.07;100371.25;6370996;27;20078;-68
2022/03/06 00:07:43;;;;;;;6.97;3.70;;;;;;;-0.74;69.17;100365.28;6405537;27;20421;-71
2022/03/06 00:10:44;;;;;;;5.82;3.42;;;;;;;-0.78;69.63;100368.75;6372203;27;20122;-71
2022/03/06 00:13:45;;;;;;;7.60;3.17;;;;;;;-0.88;69.69;100369.69;6370932;28;20043;-68
2022/03/06 00:16:46;;;;;;;5.38;2.95;;;;;;;-0.84;69.87;100367.06;6371295;27;20471;-68
2022/03/06 00:19:47;;;;;;;7.47;4.05;;;;;;;-0.76;69.93;100364.44;6376365;27;20039;-68
2022/03/06 00:22:48;;;;;;;7.05;3.08;;;;;;;-0.89;70.08;100370.53;6377589;27;20046;-68
2022/03/06 00:25:49;;;;;;;9.52;4.50;;;;;;;-0.90;70.21;100371.41;6377417;27;20066;-68
2022/03/06 00:28:50;;;;;;;8.35;4.25;;;;;;;-0.92;70.42;100380.81;6377352;27;20459;-71
2022/03/06 00:31:51;;;;;;;6.10;3.80;;;;;;;-0.90;70.22;100384.22;6377250;27;20467;-67
2022/03/06 00:34:52;;;;;;;7.95;4.50;;;;;;;-0.94;70.08;100385.97;6376995;27;20444;-68
2022/03/06 00:37:53;;;;;;;7.95;3.88;;;;;;;-1.00;70.84;100375.75;6375876;27;20062;-71
2022/03/06 00:40:54;;;;;;;8.50;4.40;;;;;;;-1.06;70.86;100380.94;6375867;27;20043;-68
2022/03/06 00:43:55;;;;;;;7.43;3.75;;;;;;;-1.07;70.96;100374.09;6376886;27;20039;-67
2022/03/06 00:46:55;;;;;;;8.68;4.40;;;;;;;-1.15;71.65;100371.63;6376895;27;20039;-67
2022/03/06 00:49:56;;;;;;;7.28;4.10;;;;;;;-1.07;71.34;100382.66;6376607;27;20455;-71
2022/03/06 00:52:57;;;;;;;10.07;3.47;;;;;;;-1.06;71.30;100368.97;6376683;27;20099;-71
2022/03/06 00:55:58;;;;;;;6.25;3.58;;;;;;;-1.17;71.45;100369.91;6375264;27;20047;-71
2022/03/06 00:58:58;;;;;;;14.95;4.30;;;;;;;-1.14;71.77;100369.91;6376545;27;20035;-67
2022/03/06 01:02:01;;;;;;;11.02;4.57;;;;;;;-1.03;70.76;100357.84;6374652;27;20039;-67
2022/03/06 01:05:03;;;;;;;8.38;4.03;;;;;;;-1.11;71.12;100369.88;6375846;27;20039;-68
2022/03/06 01:08:05;;;;;;;11.43;4.53;;;;;;;-1.14;71.62;100357.09;6376282;27;20051;-68
2022/03/06 01:11:06;;;;;;;8.10;4.15;;;;;;;-1.22;72.08;100368.22;6375235;27;20146;-68
2022/03/06 01:14:07;;;;;;;8.50;4.25;;;;;;;-1.25;71.82;100355.47;6376007;27;20043;-71
2022/03/06 01:17:08;;;;;;;4.60;3.03;;;;;;;-1.31;71.97;100359.78;6358186;27;20490;-71
2022/03/06 01:20:09;;;;;;;10.57;4.60;;;;;;;-1.26;71.84;100355.47;6376076;27;20128;-68
2022/03/06 01:23:10;;;;;;;10.93;4.80;;;;;;;-1.25;72.29;100358.03;6376086;27;20565;-71
2022/03/06 01:26:11;;;;;;;7.82;4.68;;;;;;;-1.27;72.50;100341.84;6357768;27;20403;-71
2022/03/06 01:29:12;;;;;;;10.52;4.57;;;;;;;-1.29;72.25;100353.78;6357556;27;20043;-71
2022/03/06 01:32:13;;;;;;;10.13;4.35;;;;;;;-1.31;72.49;100337.59;6375874;27;20043;-71
2022/03/06 01:35:14;;;;;;;6.63;3.58;;;;;;;-1.34;72.05;100340.19;6340623;27;20039;-68
2022/03/06 01:38:15;;;;;;;5.35;3.35;;;;;;;-1.42;72.75;100342.81;6375643;27;20046;-71
2022/03/06 01:41:16;;;;;;;8.35;4.50;;;;;;;-1.43;72.99;100335.97;6375418;27;20035;-68
2022/03/06 01:44:17;;;;;;;7.68;4.05;;;;;;;-1.37;72.70;100334.25;6357477;27;20043;-68
2022/03/06 01:47:35;;;;;;;6.03;3.22;;;;;;;-1.45;72.98;100337.69;6375330;27;20035;-67
2022/03/06 01:50:37;;;;;;;8.00;4.07;;;;;;;-1.50;73.13;100330.94;6357477;27;20043;-71
2022/03/06 01:53:38;;;;;;;9.07;4.43;;;;;;;-1.48;73.23;100324.94;6375552;27;20041;-68
2022/03/06 01:56:41;;;;;;;9.35;4.28;;;;;;;-1.53;73.63;100328.38;6373937;27;20043;-71
2022/03/06 01:59:42;;;;;;;;;;;;;;;-1.39;73.22;100323.16;6375664;27;20043;-67
2022/03/06 02:02:43;;;;;;;7.45;4.13;;;;;;;-1.31;72.49;100324.78;6375095;27;20330;-68
2022/03/06 02:05:44;;;;;;;7.57;4.10;;;;;;;-1.44;73.59;100315.53;6374911;27;20045;-71
2022/03/06 02:08:46;;;;;;;9.63;4.80;;;;;;;-1.49;73.31;100323.22;6374983;27;20045;-71
2022/03/06 02:12:20;;;;;;;10.07;4.80;;;;;;;-1.47;73.31;100324.06;6373984;27;20067;-67
2022/03/06 02:15:11;;;;;;;11.93;3.53;;;;;;;-1.46;73.13;100320.66;6374799;27;20050;-71
2022/03/06 02:18:12;;;;;;;6.65;4.25;;;;;;;-1.51;73.23;100319.81;6374577;27;20471;-67
2022/03/06 02:21:14;;;;;;;6.93;3.63;;;;;;;-1.64;73.47;100313.09;6373207;27;20050;-71
2022/03/06 02:24:14;;;;;;;8.85;3.60;;;;;;;-1.53;73.05;100315.59;6374703;27;20092;-68
2022/03/06 02:27:15;;;;;;;8.38;3.90;;;;;;;-1.60;73.93;100314.78;6374381;27;20530;-71
2022/03/06 02:30:22;;;;;;;10.43;4.47;;;;;;;-1.68;74.18;100304.59;6356402;27;20051;-71
2022/03/06 02:33:23;;;;;;;6.45;3.75;;;;;;;-1.70;74.49;100305.47;6374271;27;20454;-68
2022/03/06 02:36:24;;;;;;;9.50;4.72;;;;;;;-1.71;74.27;100307.19;6390724;27;20043;-68
2022/03/06 02:39:25;;;;;;;5.97;3.42;;;;;;;-1.75;74.25;100300.41;6374051;27;20467;-68
2022/03/06 02:42:29;;;;;;;10.48;5.18;;;;;;;-1.71;74.17;100312.31;6372941;27;20460;-67
2022/03/06 02:45:30;;;;;;;10.43;5.15;;;;;;;-1.59;73.57;100297.72;6373760;27;20396;-68
2022/03/06 02:48:31;;;;;;;8.95;4.40;;;;;;;-1.63;73.64;100304.56;6355435;27;20083;-67
2022/03/06 02:51:32;;;;;;;6.85;3.15;;;;;;;-1.68;73.93;100304.59;6374100;27;20043;-68
2022/03/06 02:54:33;;;;;;;9.32;5.10;;;;;;;-1.63;73.42;100310.53;6373905;27;20054;-68
2022/03/06 02:57:34;;;;;;;7.65;4.05;;;;;;;-1.69;74.24;100296.91;6372707;27;20042;-68
2022/03/06 03:00:35;;;;;;;8.60;4.38;;;;;;;-1.68;73.73;100303.75;6372460;27;20073;-67
2022/03/06 03:03:40;;;;;;;5.10;3.03;;;;;;;-1.69;74.02;100307.16;6355563;27;20031;-71
2022/03/06 03:06:40;;;;;;;8.90;4.63;;;;;;;-1.70;73.64;100300.34;6373534;27;20046;-71
2022/03/06 03:09:42;;;;;;;11.38;4.45;;;;;;;-1.70;74.17;100306.31;6373603;27;20424;-67
2022/03/06 03:12:43;;;;;;;8.63;4.82;;;;;;;-1.66;73.78;100307.16;6373586;27;20035;-71
2022/03/06 03:15:44;;;;;;;8.30;4.90;;;;;;;-1.66;73.70;100310.56;6372068;27;20039;-71
2022/03/06 03:18:45;;;;;;;10.38;4.88;;;;;;;-1.62;73.46;100309.66;6372086;27;20111;-67
2022/03/06 03:21:46;;;;;;;9.70;5.10;;;;;;;-1.60;73.36;100313.94;6373208;27;20047;-71
2022/03/06 03:24:46;;;;;;;10.18;5.22;;;;;;;-1.61;73.35;100313.06;6371975;27;20042;-71
2022/03/06 03:27:47;;;;;;;7.43;4.72;;;;;;;-1.69;73.82;100309.72;6372991;27;20043;-68
2022/03/06 03:30:48;;;;;;;5.57;3.45;;;;;;;-1.77;74.43;100314.03;6372775;27;20513;-68
2022/03/06 03:33:49;;;;;;;10.43;5.38;;;;;;;-1.73;74.19;100318.25;6371224;27;20510;-68
2022/03/06 03:36:49;;;;;;;9.10;4.10;;;;;;;-1.72;73.94;100317.41;6372781;27;20118;-68
2022/03/06 03:39:50;;;;;;;8.32;4.93;;;;;;;-1.82;74.14;100317.47;6372880;27;20122;-68
2022/03/06 03:42:51;;;;;;;9.05;4.80;;;;;;;-1.77;74.09;100316.59;6371592;27;20057;-68
2022/03/06 03:45:52;;;;;;;11.18;4.95;;;;;;;-1.74;74.10;100319.16;6372620;27;20042;-67
2022/03/06 03:48:53;;;;;;;9.00;5.47;;;;;;;-1.84;74.40;100319.19;6371311;27;20087;-67
2022/03/06 03:51:54;;;;;;;9.40;5.13;;;;;;;-1.75;74.19;100318.31;6353506;28;20043;-68
2022/03/06 03:54:55;;;;;;;11.25;4.70;;;;;;;-1.79;73.65;100319.19;6372606;27;20037;-68
2022/03/06 03:57:56;;;;;;;8.40;5.03;;;;;;;-1.78;74.07;100315.75;6354204;27;20390;-68
2022/03/06 04:00:57;;;;;;;8.63;5.03;;;;;;;-1.72;73.93;100323.38;6371369;27;20067;-71
2022/03/06 04:03:57;;;;;;;7.72;4.40;;;;;;;-1.79;73.82;100321.75;6372435;27;20046;-67
2022/03/06 04:06:59;;;;;;;9.48;5.20;;;;;;;-1.80;74.13;100326.84;6371181;27;20129;-68
2022/03/06 04:09:59;;;;;;;15.93;5.20;;;;;;;-1.77;73.91;100326.81;6371050;27;20107;-71
2022/03/06 04:13:00;;;;;;;10.43;5.68;;;;;;;-1.74;73.72;100327.66;6371072;27;20067;-71
2022/03/06 04:16:02;;;;;;;9.00;4.28;;;;;;;-1.88;74.72;100327.72;6372170;27;20036;-71
2022/03/06 04:19:04;;;;;;;10.10;5.80;;;;;;;-1.95;75.44;100326.09;6370957;28;20126;-70
2022/03/06 04:22:04;;;;;;;14.98;5.28;;;;;;;-1.86;74.31;100328.56;6370942;28;20390;-70
2022/03/06 04:25:06;;;;;;;8.63;5.07;;;;;;;-1.83;73.78;100335.41;6372366;27;20039;-68
2022/03/06 04:28:08;;;;;;;10.82;5.25;;;;;;;-1.92;74.28;100325.22;6371973;27;20043;-70
2022/03/06 04:31:09;;;;;;;13.20;3.80;;;;;;;-1.91;74.15;100326.94;6372233;27;20042;-70
2022/03/06 04:34:10;;;;;;;10.95;5.50;;;;;;;-1.83;74.12;100331.13;6372127;27;20446;-67
2022/03/06 04:37:11;;;;;;;11.43;5.72;;;;;;;-1.83;74.15;100338.81;6370771;28;20042;-67
2022/03/06 04:40:12;;;;;;;9.00;4.78;;;;;;;-1.89;73.90;100330.31;6372308;28;20031;-70
2022/03/06 04:43:13;;;;;;;10.82;6.15;;;;;;;-1.88;74.18;100332.00;6370696;28;20035;-71
2022/03/06 04:46:14;;;;;;;10.10;5.70;;;;;;;-1.93;74.70;100326.09;6370804;28;20043;-71
2022/03/06 04:49:15;;;;;;;8.98;4.82;;;;;;;-2.00;74.54;100334.63;6353446;28;20051;-68
2022/03/06 04:52:16;;;;;;;9.48;4.93;;;;;;;-2.01;75.06;100333.78;6371866;27;20043;-67
2022/03/06 04:55:17;;;;;;;10.25;6.15;;;;;;;-2.13;75.17;100328.72;6371787;28;20063;-71
2022/03/06 04:58:18;;;;;;;13.57;6.70;;;;;;;-2.03;75.29;100336.34;6353503;28;20039;-70
2022/03/06 05:01:18;;;;;;;11.70;6.00;;;;;;;-2.00;75.14;100340.59;6371112;28;20493;-71
2022/03/06 05:04:20;;;;;;;11.40;5.70;;;;;;;-1.99;75.61;100351.69;6373807;27;20094;-71
2022/03/06 05:07:20;;;;;;;10.75;5.43;;;;;;;-2.05;75.39;100348.28;6376370;27;20134;-69
2022/03/06 05:10:21;;;;;;;8.52;4.80;;;;;;;-2.06;75.48;100350.84;6375163;27;20081;-68
2022/03/06 05:13:23;;;;;;;8.45;5.10;;;;;;;-2.11;75.54;100352.59;6376363;27;20050;-68
2022/03/06 05:16:24;;;;;;;16.08;7.47;;;;;;;-2.08;75.85;100348.31;6376298;27;20043;-71
2022/03/06 05:19:25;;;;;;;9.02;5.00;;;;;;;-2.07;75.71;100357.69;6357907;27;20046;-71
2022/03/06 05:22:26;;;;;;;12.30;6.18;;;;;;;-2.07;75.74;100350.00;6376044;27;20043;-71
2022/03/06 05:25:27;;;;;;;10.98;5.35;;;;;;;-2.05;75.38;100361.06;6374980;27;20042;-70
2022/03/06 05:28:28;;;;;;;11.68;5.28;;;;;;;-2.14;75.96;100352.59;6375780;27;20038;-67
2022/03/06 05:31:29;;;;;;;13.40;5.85;;;;;;;-2.07;75.59;100355.13;6357703;27;20050;-67
2022/03/06 05:34:31;;;;;;;13.77;6.65;;;;;;;-2.08;75.36;100361.09;6357652;27;20040;-71
2022/03/06 05:37:32;;;;;;;11.63;5.30;;;;;;;-2.00;74.93;100357.66;6374766;27;20136;-70
2022/03/06 05:40:33;;;;;;;10.13;5.68;;;;;;;-1.92;74.62;100346.50;6374692;27;20363;-71
2022/03/06 05:43:34;;;;;;;7.72;4.25;;;;;;;-1.95;74.87;100345.69;6375632;27;20040;-67
2022/03/06 05:46:35;;;;;;;8.40;4.18;;;;;;;-1.92;74.38;100338.00;6340343;27;20046;-71
2022/03/06 05:49:36;;;;;;;9.73;5.80;;;;;;;-1.74;73.95;100342.16;6357089;27;20463;-70
2022/03/06 05:52:37;;;;;;;9.60;4.38;;;;;;;-1.89;74.24;100338.00;6375541;27;20096;-71
2022/03/06 05:55:38;;;;;;;9.18;5.22;;;;;;;-1.69;73.47;100343.84;6375479;27;20085;-71
2022/03/06 05:58:39;;;;;;;12.35;6.22;;;;;;;-1.64;73.22;100346.38;6374099;27;20050;-71
2022/03/06 06:01:39;;;;;;;11.65;6.43;;;;;;;-1.46;72.55;100345.41;6375261;27;20126;-67
2022/03/06 06:04:41;;;;;;;9.05;4.75;;;;;;;-1.51;71.95;100332.63;6373832;27;20052;-67
2022/03/06 06:07:42;;;;;;;12.20;7.07;;;;;;;-1.47;72.07;100334.28;6356724;27;20041;-67
2022/03/06 06:10:43;;;;;;;11.13;6.20;;;;;;;-1.36;71.72;100335.94;6373680;27;20080;-67
2022/03/06 06:13:44;;;;;;;18.35;7.15;;;;;;;-1.32;71.46;100333.34;6373563;27;20062;-67
2022/03/06 06:16:45;;;;;;;11.38;5.78;;;;;;;-1.25;70.50;100335.00;6373866;27;20043;-67
2022/03/06 06:19:46;;;;;;;17.25;7.22;;;;;;;-1.11;70.88;100334.88;6390520;27;20058;-68
2022/03/06 06:22:46;;;;;;;13.48;8.48;;;;;;;-1.03;69.53;100345.03;6374867;27;20043;-68
2022/03/06 06:25:47;;;;;;;17.63;8.27;;;;;;;-0.92;69.31;100344.97;6372846;27;20047;-68
2022/03/06 06:28:52;;;;;;;14.40;8.13;;;;;;;-0.86;69.54;100345.75;6373874;27;20127;-68
2022/03/06 06:31:53;;;;;;;12.38;7.25;;;;;;;-0.83;68.20;100342.28;6374269;27;20043;-68
2022/03/06 06:34:54;;;;;;;12.60;5.20;;;;;;;-0.67;67.85;100337.88;6374338;27;20403;-67
2022/03/06 06:37:55;;;;;;;11.02;6.32;;;;;;;-0.63;67.79;100345.50;6372785;27;20395;-68
2022/03/06 06:40:56;;;;;;;14.23;7.88;;;;;;;-0.52;67.13;100350.50;6373637;27;20407;-68
2022/03/06 06:43:57;;;;;;;22.95;12.27;;;;;;;-0.32;66.51;100344.31;6355753;27;20039;-68
2022/03/06 06:46:58;;;;;;;18.58;9.60;;;;;;;-0.32;66.30;100346.91;6355874;27;20043;-68
2022/03/06 06:49:58;;;;;;;15.65;7.50;;;;;;;-0.25;65.33;100349.38;6372578;27;20059;-68
2022/03/06 06:52:59;;;;;;;15.02;8.02;;;;;;;0.08;64.64;100348.94;6374114;27;20048;-68
2022/03/06 06:56:00;;;;;;;12.40;7.32;;;;;;;0.04;63.50;100347.28;6372760;27;20054;-71
2022/03/06 06:59:01;;;;;;;15.60;7.40;;;;;;;0.09;64.33;100350.66;6355345;27;20122;-71
2022/03/06 07:02:02;;;;;;;11.70;6.70;;;;;;;0.10;63.86;100347.22;6373656;27;20482;-71
2022/03/06 07:05:03;;;;;;;16.95;7.93;;;;;;;0.43;62.85;100352.75;6355590;27;20420;-71
2022/03/06 07:08:04;;;;;;;20.98;9.80;;;;;;;0.57;63.32;100354.22;6362253;27;20055;-67
2022/03/06 07:11:05;;;;;;;20.08;10.32;;;;;;;0.67;61.94;100356.69;6363336;27;20061;-68
2022/03/06 07:14:06;;;;;;;19.27;9.68;;;;;;;0.87;62.03;100359.78;6364222;27;20062;-67
2022/03/06 07:17:07;;;;;;;13.45;7.30;;;;;;;0.87;61.25;100349.50;6347349;28;20487;-67
2022/03/06 07:20:09;;;;;;;14.95;8.15;;;;;;;1.04;60.60;100359.50;6357532;27;20039;-68
2022/03/06 07:23:10;;;;;;;21.45;10.35;;;;;;;1.31;60.86;100362.47;6371526;27;20039;-68
2022/03/06 07:26:11;;;;;;;19.95;8.95;;;;;;;1.38;59.68;100367.47;6372689;27;20054;-68
2022/03/06 07:29:12;;;;;;;19.23;9.82;;;;;;;1.51;59.40;100362.09;6372373;27;20472;-68
2022/03/06 07:32:13;;;;;;;14.45;8.82;;;;;;;1.65;58.73;100351.53;6371327;27;20483;-68
2022/03/06 07:35:17;;;;;;;16.85;8.85;;;;;;;1.66;58.79;100359.22;6371260;27;20478;-67
2022/03/06 07:38:18;;;;;;;22.23;10.70;;;;;;;1.79;59.29;100350.41;6361701;27;20073;-68
2022/03/06 07:41:19;;;;;;;18.55;9.65;;;;;;;1.71;58.35;100359.13;6336755;27;20122;-67
2022/03/06 07:44:20;;;;;;;16.38;9.32;;;;;;;1.84;58.33;100354.59;6371052;27;20057;-67
2022/03/06 07:47:21;;;;;;;21.02;9.50;;;;;;;1.93;58.05;100360.38;6370949;27;20406;-68
2022/03/06 07:50:22;;;;;;;10.02;6.53;;;;;;;1.98;57.67;100356.00;6372040;27;20043;-67
2022/03/06 07:53:23;;;;;;;21.58;9.60;;;;;;;2.06;56.99;100350.72;6371008;27;20043;-68
2022/03/06 07:56:24;;;;;;;11.48;6.63;;;;;;;2.05;56.92;100343.84;6371076;27;20137;-68
2022/03/06 07:59:25;;;;;;;17.10;9.05;;;;;;;2.28;57.09;100342.50;6371853;27;20067;-67
2022/03/06 08:02:26;;;;;;;15.75;7.05;;;;;;;2.43;56.53;100342.16;6370893;27;20479;-68
2022/03/06 08:05:27;;;;;;;12.10;5.97;;;;;;;2.66;55.33;100345.91;6370463;27;20038;-67
2022/03/06 08:08:28;;;;;;;12.85;7.40;;;;;;;2.67;55.61;100333.00;6353658;27;20070;-71
2022/03/06 08:11:29;;;;;;;17.23;9.63;;;;;;;2.97;54.57;100338.31;6370741;27;20046;-71
2022/03/06 08:14:30;;;;;;;14.23;8.35;;;;;;;3.15;53.92;100335.25;6348231;27;20059;-71
2022/03/06 08:17:31;;;;;;;20.88;10.32;;;;;;;3.45;53.70;100337.91;6355950;27;20419;-71
2022/03/06 08:20:32;;;;;;;17.52;9.48;;;;;;;3.68;52.97;100332.09;6354435;27;20040;-71
2022/03/06 08:23:33;;;;;;;20.70;10.55;;;;;;;3.63;52.94;100331.41;6364753;28;20065;-71
2022/03/06 08:26:34;;;;;;;17.30;9.55;;;;;;;3.46;53.18;100320.69;6353395;28;20039;-71
2022/03/06 08:29:34;;;;;;;15.90;8.27;;;;;;;3.46;53.41;100328.41;6368758;28;20402;-71
2022/03/06 08:32:37;;;;;;;22.30;10.50;;;;;;;3.96;53.95;100323.56;6346484;27;20128;-71
2022/03/06 08:35:38;;;;;;;20.33;11.20;;;;;;;4.26;51.50;100323.53;6344899;28;20062;-71
2022/03/06 08:38:39;;;;;;;20.67;10.45;;;;;;;4.29;51.13;100323.47;6347434;28;20098;-70
2022/03/06 08:41:40;;;;;;;21.65;10.52;;;;;;;4.67;52.46;100322.22;6351759;27;20475;-71
2022/03/06 08:44:41;;;;;;;17.13;10.27;;;;;;;4.93;50.13;100326.56;6375362;27;20067;-71
2022/03/06 08:47:42;;;;;;;17.27;9.70;;;;;;;4.92;49.54;100319.72;6376484;27;20557;-71
2022/03/06 08:50:44;;;;;;;21.58;10.77;;;;;;;4.66;50.21;100317.13;6330481;28;20067;-71
2022/03/06 08:53:45;;;;;;;19.08;11.18;;;;;;;4.74;49.97;100318.56;6349709;28;20483;-71
2022/03/06 08:56:45;;;;;;;19.52;10.60;;;;;;;4.71;50.10;100316.06;6350824;28;20039;-71
2022/03/06 08:59:46;;;;;;;28.67;13.52;;;;;;;4.83;49.62;100315.66;6349312;28;20046;-71
2022/03/06 09:02:47;;;;;;;19.30;10.32;;;;;;;4.78;49.71;100317.56;6350675;28;20039;-71
2022/03/06 09:05:48;;;;;;;17.33;9.15;;;;;;;5.09;49.09;100308.78;6349293;28;20047;-71
2022/03/06 09:08:48;;;;;;;35.13;15.70;;;;;;;5.12;48.87;100310.41;6350516;28;20057;-71
2022/03/06 09:11:49;;;;;;;20.65;12.55;;;;;;;5.72;48.01;100305.69;6367099;27;20483;-71
2022/03/06 09:14:50;;;;;;;16.40;8.32;;;;;;;5.77;47.19;100298.63;6374766;27;20043;-71
2022/03/06 09:17:51;;;;;;;21.08;11.90;;;;;;;6.28;46.47;100305.34;6374433;27;20099;-71
2022/03/06 09:20:52;;;;;;;20.27;11.88;;;;;;;6.52;46.37;100300.91;6375640;27;20729;-72
2022/03/06 09:23:53;;;;;;;17.75;10.45;;;;;;;6.56;46.12;100310.25;6375554;27;20492;-71
2022/03/06 09:26:54;;;;;;;19.48;10.00;;;;;;;6.33;45.57;100303.38;6375592;27;20467;-71
2022/03/06 09:29:54;;;;;;;19.92;10.30;;;;;;;6.51;46.05;100301.00;6375404;27;20043;-71
2022/03/06 09:32:55;;;;;;;21.67;12.15;;;;;;;6.66;46.23;100292.56;6374165;27;20063;-71
2022/03/06 09:35:56;;;;;;;20.45;10.93;;;;;;;6.79;47.18;100288.56;6375412;27;20485;-71
2022/03/06 09:38:57;;;;;;;27.85;12.32;;;;;;;6.81;45.23;100288.50;6375116;27;20050;-71
2022/03/06 09:41:58;;;;;;;23.23;12.30;;;;;;;6.92;45.35;100277.66;6355814;27;20039;-71
2022/03/06 09:45:04;;;;;;;26.15;13.30;;;;;;;7.10;46.25;100276.03;6349637;28;20538;-71
2022/03/06 09:48:09;;;;;;;19.73;11.65;;;;;;;6.87;44.93;100275.28;6348748;28;20055;-71
2022/03/06 09:51:10;;;;;;;22.63;13.93;;;;;;;7.01;44.85;100272.94;6348015;28;20043;-71
2022/03/06 09:54:12;;;;;;;21.95;12.27;;;;;;;7.43;43.56;100272.00;6349386;28;20537;-71
2022/03/06 09:57:18;;;;;;;25.10;14.15;;;;;;;7.38;43.63;100268.75;6349258;28;20122;-71
2022/03/06 10:00:20;;;;;;;24.13;12.13;;;;;;;7.59;43.72;100266.09;6347894;28;20036;-71
2022/03/06 10:03:22;;;;;;;23.92;13.85;;;;;;;7.86;44.07;100259.66;6347955;28;20047;-71
2022/03/06 10:06:26;;;;;;;24.98;13.57;;;;;;;8.35;43.53;100256.47;6348222;28;20114;-71
2022/03/06 10:09:28;;;;;;;22.23;12.52;;;;;;;8.56;42.36;100264.16;6348046;28;20040;-72
2022/03/06 10:12:32;;;;;;;23.53;13.97;;;;;;;8.74;41.34;100260.66;6348872;28;20035;-72
2022/03/06 10:16:00;;;;;;;22.67;12.27;;;;;;;8.75;41.25;100259.75;6348959;28;20055;-71
2022/03/06 10:19:03;;;;;;;23.38;12.48;;;;;;;8.73;40.50;100258.13;6348737;28;20047;-71
2022/03/06 10:22:13;;;;;;;27.17;14.05;;;;;;;8.52;40.63;100254.81;6347515;28;20499;-72
2022/03/06 10:25:20;;;;;;;26.17;13.30;;;;;;;8.29;41.45;100256.75;6348551;28;20051;-71
2022/03/06 10:28:23;;;;;;;19.50;11.50;;;;;;;8.38;41.17;100251.13;6348617;28;20415;-71
2022/03/06 10:31:25;;;;;;;;;;;;;;;8.45;40.92;100255.13;6348742;28;20043;-72
2022/03/06 10:34:40;;;;;;;19.55;11.10;;;;;;;8.56;40.11;100253.75;6348422;28;20375;-71
2022/03/06 10:37:41;;;;;;;16.65;9.75;;;;;;;8.63;39.98;100250.78;6348301;28;20067;-72
2022/03/06 10:40:42;;;;;;;19.92;10.75;;;;;;;9.10;41.22;100241.50;6330127;28;20116;-72
2022/03/06 10:43:43;;;;;;;18.77;11.50;;;;;;;9.15;38.81;100246.47;6329957;28;20380;-71
2022/03/06 10:47:04;;;;;;;22.58;11.98;;;;;;;9.08;39.34;100240.72;6347020;28;20048;-72
2022/03/06 10:50:06;;;;;;;18.42;11.80;;;;;;;9.58;39.53;100234.59;6347715;28;20105;-72
2022/03/06 10:53:24;;;;;;;16.55;10.32;;;;;;;9.48;37.55;100228.22;6346750;28;20051;-72
2022/03/06 10:56:26;;;;;;;19.20;11.07;;;;;;;9.12;37.25;100225.78;6358667;27;20050;-73
2022/03/06 10:59:27;;;;;;;18.90;10.88;;;;;;;8.64;38.55;100225.63;6373068;27;20046;-72
2022/03/06 11:02:28;;;;;;;22.55;12.05;;;;;;;9.20;37.26;100218.41;6371312;27;20039;-70
2022/03/06 11:05:30;;;;;;;17.60;11.00;;;;;;;9.60;37.89;100213.69;6372025;27;20522;-71
2022/03/06 11:08:32;;;;;;;24.33;12.43;;;;;;;9.79;35.80;100210.91;6373026;27;20061;-70
2022/03/06 11:11:33;;;;;;;20.33;11.38;;;;;;;9.21;37.61;100201.88;6371797;27;20031;-73
2022/03/06 11:14:35;;;;;;;21.42;11.85;;;;;;;9.56;38.87;100197.38;6372906;27;20046;-71
2022/03/06 11:17:36;;;;;;;19.63;11.40;;;;;;;10.04;36.05;100199.94;6371854;27;20039;-71
2022/03/06 11:20:40;;;;;;;20.58;11.45;;;;;;;9.49;36.18;100203.81;6371416;27;20039;-71
2022/03/06 11:23:50;;;;;;;19.02;11.68;;;;;;;9.51;37.05;100194.16;6372748;27;20092;-71
2022/03/06 11:26:53;;;;;;;17.95;11.10;;;;;;;10.01;35.62;100193.16;6372724;27;20406;-71
2022/03/06 11:30:07;;;;;;;19.77;11.38;;;;;;;9.82;34.98;100187.28;6372704;27;20479;-71
2022/03/06 11:33:11;;;;;;;27.83;13.48;;;;;;;9.80;34.52;100194.34;6372458;27;20031;-71
2022/03/06 11:36:26;;;;;;;23.33;12.63;;;;;;;8.96;36.87;100179.75;6372726;27;20049;-71
2022/03/06 11:39:30;;;;;;;17.90;11.13;;;;;;;9.04;36.94;100163.72;6372302;27;20043;-70
2022/03/06 11:42:53;;;;;;;20.58;11.57;;;;;;;9.77;37.10;100163.25;6372288;27;20503;-71
2022/03/06 11:46:04;;;;;;;20.52;13.25;;;;;;;10.32;37.13;100152.31;6371345;27;20115;-71
2022/03/06 11:49:06;;;;;;;17.92;10.13;;;;;;;9.94;34.51;100152.69;6372097;27;20076;-71
2022/03/06 11:52:29;;;;;;;15.82;9.98;;;;;;;10.31;36.16;100153.22;6371968;27;20423;-71
2022/03/06 11:55:32;;;;;;;18.98;11.85;;;;;;;10.05;37.07;100152.13;6371003;27;20047;-73
2022/03/06 11:59:02;;;;;;;;;;;;;;;9.42;38.67;100151.22;6371232;27;20063;-72
2022/03/06 12:02:10;;;;;;;16.75;10.50;;;;;;;9.17;37.27;100143.91;6362791;27;19950;-73
2022/03/06 12:05:11;;;;;;;19.80;11.45;;;;;;;9.61;35.51;100132.81;6371797;27;20039;-73
2022/03/06 12:08:13;;;;;;;22.42;12.05;;;;;;;10.05;36.98;100134.69;6370861;27;20058;-72
2022/03/06 12:11:14;;;;;;;;;;;;;;;9.89;35.47;100133.88;6372093;27;20035;-72
2022/03/06 12:14:39;;;;;;;23.48;12.65;;;;;;;10.16;36.29;100122.81;6371084;27;19919;-73
2022/03/06 12:17:40;;;;;;;16.95;9.68;;;;;;;10.59;36.70;100125.53;6370486;28;20031;-71
2022/03/06 12:20:43;;;;;;;14.70;9.77;;;;;;;10.47;34.60;100112.25;6371741;27;20096;-71
2022/03/06 12:23:44;;;;;;;19.17;11.38;;;;;;;10.47;35.70;100111.44;6371593;27;20071;-73
2022/03/06 12:26:46;;;;;;;18.67;11.85;;;;;;;10.40;34.89;100107.53;6371665;27;20042;-68
2022/03/06 12:29:47;;;;;;;19.05;11.57;;;;;;;10.45;35.23;100108.91;6370308;28;20057;-68
2022/03/06 12:32:48;;;;;;;26.92;14.88;;;;;;;10.68;35.50;100101.47;6371701;27;20069;-67
2022/03/06 12:35:49;;;;;;;19.48;11.55;;;;;;;9.64;36.18;100093.59;6370316;28;20482;-67
2022/03/06 12:38:59;;;;;;;34.42;15.70;;;;;;;10.17;37.38;100096.66;6370420;28;20088;-67
2022/03/06 12:42:01;;;;;;;20.95;12.13;;;;;;;10.68;34.27;100098.84;6371388;28;20074;-69
2022/03/06 12:45:09;;;;;;;18.27;11.35;;;;;;;10.87;35.31;100090.75;6370289;28;20070;-68
2022/03/06 12:48:10;;;;;;;18.80;11.30;;;;;;;11.00;34.08;100089.06;6371187;27;20047;-68
2022/03/06 12:51:11;;;;;;;19.98;12.48;;;;;;;10.24;34.20;100090.13;6353282;28;20042;-68
2022/03/06 12:54:20;;;;;;;18.83;11.50;;;;;;;9.79;35.30;100091.88;6370199;28;20043;-68
2022/03/06 12:57:30;;;;;;;19.40;11.15;;;;;;;9.48;35.37;100091.00;6371370;27;20044;-67
2022/03/06 13:00:33;;;;;;;19.60;11.60;;;;;;;9.12;35.79;100093.88;6371202;27;20043;-68
2022/03/06 13:03:34;;;;;;;19.80;11.73;;;;;;;9.41;37.52;100086.22;6369847;28;20409;-68
2022/03/06 13:06:35;;;;;;;24.50;12.48;;;;;;;9.57;36.55;100083.59;6371269;27;20043;-68
2022/03/06 13:09:36;;;;;;;20.65;11.63;;;;;;;9.46;37.03;100077.22;6371237;27;20414;-68
2022/03/06 13:12:46;;;;;;;25.75;12.88;;;;;;;9.67;36.44;100075.16;6352921;28;20043;-67
2022/03/06 13:15:50;;;;;;;22.48;11.57;;;;;;;10.33;35.20;100085.34;6369892;28;20047;-68
2022/03/06 13:19:02;;;;;;;14.95;9.75;;;;;;;10.82;34.11;100084.97;6371087;27;20054;-68
2022/03/06 13:22:11;;;;;;;22.08;11.90;;;;;;;10.79;34.74;100087.75;6370921;27;20054;-68
2022/03/06 13:25:13;;;;;;;17.00;10.85;;;;;;;10.89;34.58;100081.03;6350754;27;20093;-68
2022/03/06 13:28:20;;;;;;;22.98;13.25;;;;;;;10.94;34.23;100078.16;6368534;27;20412;-68
2022/03/06 13:31:21;;;;;;;20.92;13.05;;;;;;;10.76;33.62;100082.75;6348862;28;20122;-67
2022/03/06 13:34:22;;;;;;;21.60;12.45;;;;;;;10.44;36.08;100078.56;6368165;27;20066;-68
2022/03/06 13:37:38;;;;;;;17.60;11.95;;;;;;;10.21;34.10;100076.44;6375460;27;20497;-68
2022/03/06 13:40:42;;;;;;;23.15;11.60;;;;;;;9.51;34.90;100079.56;6357599;27;20273;-69
2022/03/06 13:43:47;;;;;;;22.48;13.82;;;;;;;9.05;37.76;100069.94;6365665;27;20073;-69
2022/03/06 13:46:48;;;;;;;21.80;12.68;;;;;;;8.90;36.52;100068.16;6373889;27;20054;-68
2022/03/06 13:50:00;;;;;;;32.47;18.15;;;;;;;9.20;37.08;100070.00;6374956;27;20055;-68
2022/03/06 13:53:05;;;;;;;24.75;14.10;;;;;;;9.00;35.71;100073.72;6363628;27;20051;-67
2022/03/06 13:56:06;;;;;;;35.20;19.42;;;;;;;8.92;36.62;100061.13;6349356;28;20096;-68
2022/03/06 13:59:22;;;;;;;34.03;19.45;;;;;;;9.19;36.64;100071.78;6330909;28;20142;-68
2022/03/06 14:02:27;;;;;;;18.40;11.45;;;;;;;9.56;35.87;100067.13;6359619;27;20046;-69
2022/03/06 14:05:31;;;;;;;24.92;15.63;;;;;;;10.03;34.28;100068.78;6374592;27;20100;-69